createdAt,value
2017-01-18T00:00:41.513Z,-4.4
2017-01-18T00:01:51.363Z,-4.37
2017-01-18T00:03:01.629Z,-4.49
2017-01-18T00:04:11.920Z,-4.46
2017-01-18T00:05:21.638Z,-4.5
2017-01-18T00:06:31.891Z,-4.61
2017-01-18T00:07:41.790Z,-4.55
2017-01-18T00:08:51.693Z,-4.49
2017-01-18T00:10:01.980Z,-4.49
2017-01-18T00:11:11.837Z,-4.46
2017-01-18T00:12:22.083Z,-4.4
2017-01-18T00:13:32.431Z,-4.42
2017-01-18T00:14:42.725Z,-4.35
2017-01-18T00:15:52.690Z,-4.29
2017-01-18T00:17:03.066Z,-4.31
2017-01-18T00:18:12.620Z,-4.21
2017-01-18T00:19:22.481Z,-4.17
2017-01-18T00:20:32.481Z,-4.21
2017-01-18T00:21:42.729Z,-4.27
2017-01-18T00:22:53.118Z,-4.34
2017-01-18T00:24:03.364Z,-4.43
2017-01-18T00:25:13.210Z,-4.43
2017-01-18T00:26:23.518Z,-4.42
2017-01-18T00:27:33.761Z,-4.45
2017-01-18T00:28:44.007Z,-4.45
2017-01-18T00:29:54.339Z,-4.64
2017-01-18T00:31:04.656Z,-4.58
2017-01-18T00:32:14.913Z,-4.63
2017-01-18T00:33:25.158Z,-4.58
2017-01-18T00:34:35.410Z,-4.5
2017-01-18T00:35:45.739Z,-4.53
2017-01-18T00:36:56.025Z,-4.37
2017-01-18T00:38:05.925Z,-4.45
2017-01-18T00:39:16.219Z,-4.43
2017-01-18T00:40:26.503Z,-4.6
2017-01-18T00:41:36.766Z,-4.6
2017-01-18T00:42:47.076Z,-4.53
2017-01-18T00:43:57.385Z,-4.61
2017-01-18T00:45:07.642Z,-4.58
2017-01-18T00:46:17.884Z,-4.58
2017-01-18T00:47:28.178Z,-4.74
2017-01-18T00:48:38.462Z,-4.81
2017-01-18T00:49:48.763Z,-4.76
2017-01-18T00:50:59.003Z,-4.91
2017-01-18T00:52:09.370Z,-4.88
2017-01-18T00:53:19.659Z,-4.88
2017-01-18T00:54:29.897Z,-4.74
2017-01-18T00:55:39.902Z,-4.78
2017-01-18T00:56:49.776Z,-4.74
2017-01-18T00:58:00.031Z,-4.7
2017-01-18T00:59:10.321Z,-4.58
2017-01-18T01:00:20.562Z,-4.66
2017-01-18T01:01:30.821Z,-4.66
2017-01-18T01:02:41.077Z,-4.66
2017-01-18T01:03:51.374Z,-4.63
2017-01-18T01:05:01.259Z,-4.57
2017-01-18T01:06:11.508Z,-4.53
2017-01-18T01:07:21.599Z,-4.63
2017-01-18T01:08:31.484Z,-4.64
2017-01-18T01:09:41.801Z,-4.66
2017-01-18T01:10:51.666Z,-4.63
2017-01-18T01:12:01.959Z,-4.53
2017-01-18T01:13:11.879Z,-4.55
2017-01-18T01:14:21.802Z,-4.49
2017-01-18T01:15:31.925Z,-4.42
2017-01-18T01:16:42.231Z,-4.5
2017-01-18T01:17:52.512Z,-4.64
2017-01-18T01:19:02.760Z,-4.66
2017-01-18T01:20:13.083Z,-4.73
2017-01-18T01:21:23.423Z,-4.89
2017-01-18T01:22:33.694Z,-4.89
2017-01-18T01:23:43.990Z,-4.94
2017-01-18T01:24:54.252Z,-5.03
2017-01-18T01:26:04.596Z,-4.91
2017-01-18T01:27:15.045Z,-4.94
2017-01-18T01:28:25.352Z,-4.85
2017-01-18T01:29:35.645Z,-4.89
2017-01-18T01:30:45.904Z,-4.92
2017-01-18T01:31:56.143Z,-5.02
2017-01-18T01:33:06.530Z,-5.04
2017-01-18T01:34:16.828Z,-5.09
2017-01-18T01:35:27.166Z,-5
2017-01-18T01:36:37.447Z,-5.04
2017-01-18T01:37:47.704Z,-5.15
2017-01-18T01:38:57.972Z,-5.06
2017-01-18T01:40:08.234Z,-4.99
2017-01-18T01:41:18.075Z,-5.06
2017-01-18T01:42:28.347Z,-5.06
2017-01-18T01:43:38.607Z,-5.14
2017-01-18T01:44:48.865Z,-5.07
2017-01-18T01:45:59.364Z,-4.99
2017-01-18T01:47:09.645Z,-4.94
2017-01-18T01:48:19.905Z,-4.84
2017-01-18T01:49:30.323Z,-4.86
2017-01-18T01:50:40.619Z,-4.85
2017-01-18T01:51:51.077Z,-4.82
2017-01-18T01:53:01.330Z,-4.6
2017-01-18T01:54:11.605Z,-4.63
2017-01-18T01:55:21.904Z,-4.61
2017-01-18T01:56:32.238Z,-4.57
2017-01-18T01:57:43.003Z,-4.66
2017-01-18T01:58:53.280Z,-4.66
2017-01-18T02:00:03.647Z,-4.63
2017-01-18T02:01:13.903Z,-4.73
2017-01-18T02:02:25.000Z,-4.81
2017-01-18T02:03:35.525Z,-4.78
2017-01-18T02:04:45.662Z,-4.79
2017-01-18T02:05:55.522Z,-4.74
2017-01-18T02:07:05.861Z,-4.88
2017-01-18T02:08:16.132Z,-4.91
2017-01-18T02:09:26.388Z,-4.88
2017-01-18T02:10:36.642Z,-4.88
2017-01-18T02:11:46.977Z,-4.74
2017-01-18T02:12:57.261Z,-4.79
2017-01-18T02:14:07.616Z,-4.81
2017-01-18T02:15:17.933Z,-4.66
2017-01-18T02:16:28.178Z,-4.67
2017-01-18T02:17:38.437Z,-4.66
2017-01-18T02:18:48.805Z,-4.61
2017-01-18T02:19:59.072Z,-4.6
2017-01-18T02:21:09.564Z,-4.63
2017-01-18T02:22:19.923Z,-4.64
2017-01-18T02:23:29.852Z,-4.6
2017-01-18T02:24:40.146Z,-4.58
2017-01-18T02:25:50.398Z,-4.63
2017-01-18T02:27:00.653Z,-4.61
2017-01-18T02:28:10.950Z,-4.63
2017-01-18T02:29:20.820Z,-4.66
2017-01-18T02:30:30.678Z,-4.71
2017-01-18T02:31:40.539Z,-4.85
2017-01-18T02:32:50.824Z,-4.81
2017-01-18T02:34:01.187Z,-4.84
2017-01-18T02:35:11.329Z,-4.78
2017-01-18T02:36:21.597Z,-4.68
2017-01-18T02:37:31.872Z,-4.63
2017-01-18T02:38:42.170Z,-4.55
2017-01-18T02:39:52.430Z,-4.47
2017-01-18T02:41:02.689Z,-4.45
2017-01-18T02:42:12.937Z,-4.46
2017-01-18T02:43:23.243Z,-4.52
2017-01-18T02:44:33.506Z,-4.55
2017-01-18T02:45:43.982Z,-4.58
2017-01-18T02:46:54.227Z,-4.53
2017-01-18T02:48:04.492Z,-4.57
2017-01-18T02:49:14.771Z,-4.61
2017-01-18T02:50:25.015Z,-4.61
2017-01-18T02:51:35.320Z,-4.53
2017-01-18T02:52:45.621Z,-4.58
2017-01-18T02:53:55.924Z,-4.6
2017-01-18T02:55:06.237Z,-4.67
2017-01-18T02:56:16.543Z,-4.74
2017-01-18T02:57:26.808Z,-4.61
2017-01-18T02:58:37.113Z,-4.43
2017-01-18T02:59:47.357Z,-4.37
2017-01-18T03:00:57.661Z,-4.42
2017-01-18T03:02:07.934Z,-4.47
2017-01-18T03:03:18.208Z,-4.43
2017-01-18T03:04:28.065Z,-4.32
2017-01-18T03:05:38.431Z,-4.32
2017-01-18T03:06:48.736Z,-4.27
2017-01-18T03:07:58.995Z,-4.19
2017-01-18T03:09:09.274Z,-4.19
2017-01-18T03:10:19.141Z,-4.09
2017-01-18T03:11:29.402Z,-4.17
2017-01-18T03:12:39.256Z,-4.24
2017-01-18T03:13:49.506Z,-4.31
2017-01-18T03:14:59.423Z,-4.31
2017-01-18T03:16:09.742Z,-4.39
2017-01-18T03:17:20.000Z,-4.31
2017-01-18T03:18:30.416Z,-4.28
2017-01-18T03:19:40.284Z,-4.31
2017-01-18T03:20:50.563Z,-4.29
2017-01-18T03:22:01.131Z,-4.34
2017-01-18T03:23:11.390Z,-4.29
2017-01-18T03:24:20.858Z,-4.31
2017-01-18T03:25:31.128Z,-4.37
2017-01-18T03:26:41.409Z,-4.37
2017-01-18T03:27:51.733Z,-4.32
2017-01-18T03:29:02.102Z,-4.29
2017-01-18T03:30:12.397Z,-4.27
2017-01-18T03:31:22.801Z,-4.25
2017-01-18T03:32:33.049Z,-4.19
2017-01-18T03:33:43.294Z,-4.13
2017-01-18T03:34:53.140Z,-4.19
2017-01-18T03:36:03.385Z,-4.25
2017-01-18T03:37:13.654Z,-4.34
2017-01-18T03:38:23.542Z,-4.28
2017-01-18T03:39:33.808Z,-4.28
2017-01-18T03:40:44.219Z,-4.16
2017-01-18T03:41:53.673Z,-4.31
2017-01-18T03:43:03.938Z,-4.28
2017-01-18T03:44:14.185Z,-4.29
2017-01-18T03:45:24.076Z,-4.27
2017-01-18T03:46:34.439Z,-4.29
2017-01-18T03:47:44.724Z,-4.42
2017-01-18T03:48:55.027Z,-4.46
2017-01-18T03:50:05.384Z,-4.42
2017-01-18T03:51:15.671Z,-4.49
2017-01-18T03:52:25.955Z,-4.46
2017-01-18T03:53:36.232Z,-4.43
2017-01-18T03:54:46.554Z,-4.42
2017-01-18T03:55:56.871Z,-4.32
2017-01-18T03:57:07.141Z,-4.39
2017-01-18T03:58:17.388Z,-4.27
2017-01-18T03:59:27.627Z,-4.25
2017-01-18T04:00:37.931Z,-4.27
2017-01-18T04:01:48.385Z,-4.27
2017-01-18T04:02:58.651Z,-4.25
2017-01-18T04:04:08.919Z,-4.28
2017-01-18T04:05:19.450Z,-4.17
2017-01-18T04:06:29.788Z,-4.14
2017-01-18T04:07:39.813Z,-4.11
2017-01-18T04:08:49.737Z,-4.17
2017-01-18T04:10:00.014Z,-4.28
2017-01-18T04:11:09.900Z,-4.32
2017-01-18T04:12:19.819Z,-4.37
2017-01-18T04:13:30.060Z,-4.42
2017-01-18T04:14:40.360Z,-4.39
2017-01-18T04:15:50.728Z,-4.45
2017-01-18T04:17:01.030Z,-4.5
2017-01-18T04:18:11.288Z,-4.45
2017-01-18T04:19:21.575Z,-4.42
2017-01-18T04:20:31.502Z,-4.42
2017-01-18T04:21:41.751Z,-4.47
2017-01-18T04:22:52.044Z,-4.46
2017-01-18T04:24:02.378Z,-4.55
2017-01-18T04:25:12.646Z,-4.63
2017-01-18T04:26:22.898Z,-4.63
2017-01-18T04:27:32.742Z,-4.7
2017-01-18T04:28:43.009Z,-4.78
2017-01-18T04:29:53.403Z,-4.64
2017-01-18T04:31:03.706Z,-4.61
2017-01-18T04:32:14.036Z,-4.66
2017-01-18T04:33:24.283Z,-4.55
2017-01-18T04:34:34.131Z,-4.49
2017-01-18T04:35:44.411Z,-4.43
2017-01-18T04:36:54.715Z,-4.49
2017-01-18T04:38:04.589Z,-4.43
2017-01-18T04:39:14.839Z,-4.42
2017-01-18T04:40:24.723Z,-4.43
2017-01-18T04:41:34.590Z,-4.4
2017-01-18T04:42:44.858Z,-4.42
2017-01-18T04:43:55.148Z,-4.47
2017-01-18T04:45:04.646Z,-4.42
2017-01-18T04:46:15.496Z,-4.42
2017-01-18T04:47:25.835Z,-4.46
2017-01-18T04:48:36.113Z,-4.43
2017-01-18T04:49:46.022Z,-4.57
2017-01-18T04:50:55.902Z,-4.57
2017-01-18T04:52:06.166Z,-4.6
2017-01-18T04:53:16.414Z,-4.63
2017-01-18T04:54:26.698Z,-4.47
2017-01-18T04:55:36.953Z,-4.49
2017-01-18T04:56:46.836Z,-4.45
2017-01-18T04:57:57.071Z,-4.4
2017-01-18T04:59:07.360Z,-4.42
2017-01-18T05:00:17.246Z,-4.42
2017-01-18T05:01:27.615Z,-4.45
2017-01-18T05:02:37.870Z,-4.45
2017-01-18T05:03:48.113Z,-4.45
2017-01-18T05:04:58.111Z,-4.39
2017-01-18T05:06:08.376Z,-4.35
2017-01-18T05:07:18.625Z,-4.35
2017-01-18T05:08:28.494Z,-4.46
2017-01-18T05:09:38.397Z,-4.34
2017-01-18T05:10:48.732Z,-4.17
2017-01-18T05:11:59.042Z,-4.13
2017-01-18T05:13:09.375Z,-4.16
2017-01-18T05:14:19.670Z,-4.16
2017-01-18T05:15:29.992Z,-4.14
2017-01-18T05:16:40.262Z,-4.28
2017-01-18T05:17:50.499Z,-4.31
2017-01-18T05:19:00.831Z,-4.29
2017-01-18T05:20:11.174Z,-4.37
2017-01-18T05:21:21.522Z,-4.29
2017-01-18T05:22:31.628Z,-4.29
2017-01-18T05:23:41.891Z,-4.27
2017-01-18T05:24:52.285Z,-4.24
2017-01-18T05:26:02.541Z,-4.27
2017-01-18T05:27:12.927Z,-4.14
2017-01-18T05:28:23.194Z,-4.22
2017-01-18T05:29:33.040Z,-4.25
2017-01-18T05:30:43.306Z,-4.28
2017-01-18T05:31:53.202Z,-4.06
2017-01-18T05:33:03.443Z,-4.11
2017-01-18T05:34:13.695Z,-4.24
2017-01-18T05:35:23.954Z,-4.22
2017-01-18T05:36:33.859Z,-4.14
2017-01-18T05:37:44.102Z,-4.13
2017-01-18T05:38:54.369Z,-4.06
2017-01-18T05:40:04.311Z,-4.06
2017-01-18T05:41:14.599Z,-4.11
2017-01-18T05:42:24.863Z,-4.05
2017-01-18T05:43:34.751Z,-4.09
2017-01-18T05:44:44.662Z,-3.92
2017-01-18T05:45:54.935Z,-3.97
2017-01-18T05:47:05.464Z,-4.03
2017-01-18T05:48:15.708Z,-4.09
2017-01-18T05:49:25.154Z,-4.16
2017-01-18T05:50:35.014Z,-4.09
2017-01-18T05:51:45.469Z,-4.11
2017-01-18T05:52:55.715Z,-4.14
2017-01-18T05:54:05.965Z,-4.11
2017-01-18T05:55:16.293Z,-4.19
2017-01-18T05:56:26.767Z,-4.11
2017-01-18T05:57:37.050Z,-4.21
2017-01-18T05:58:47.322Z,-4.27
2017-01-18T05:59:57.595Z,-4.34
2017-01-18T06:01:07.857Z,-4.25
2017-01-18T06:02:18.122Z,-4.24
2017-01-18T06:03:28.442Z,-4.21
2017-01-18T06:04:38.698Z,-4.17
2017-01-18T06:05:48.939Z,-4.24
2017-01-18T06:06:59.219Z,-4.19
2017-01-18T06:08:09.078Z,-4.14
2017-01-18T06:09:19.390Z,-4.25
2017-01-18T06:10:29.658Z,-4.29
2017-01-18T06:11:39.899Z,-4.29
2017-01-18T06:12:50.196Z,-4.27
2017-01-18T06:14:00.439Z,-4.25
2017-01-18T06:15:10.718Z,-4.28
2017-01-18T06:16:20.957Z,-4.28
2017-01-18T06:17:31.257Z,-4.28
2017-01-18T06:18:41.147Z,-4.29
2017-01-18T06:19:51.429Z,-4.27
2017-01-18T06:21:01.699Z,-4.29
2017-01-18T06:22:11.675Z,-4.43
2017-01-18T06:23:21.943Z,-4.4
2017-01-18T06:24:32.194Z,-4.35
2017-01-18T06:25:42.452Z,-4.46
2017-01-18T06:26:52.730Z,-4.35
2017-01-18T06:28:02.975Z,-4.4
2017-01-18T06:29:13.257Z,-4.39
2017-01-18T06:30:23.504Z,-4.45
2017-01-18T06:31:33.743Z,-4.4
2017-01-18T06:32:43.986Z,-4.37
2017-01-18T06:33:53.880Z,-4.37
2017-01-18T06:35:04.123Z,-4.42
2017-01-18T06:36:14.438Z,-4.31
2017-01-18T06:37:24.363Z,-4.49
2017-01-18T06:38:34.609Z,-4.37
2017-01-18T06:39:44.952Z,-4.45
2017-01-18T06:40:55.307Z,-4.4
2017-01-18T06:42:05.570Z,-4.39
2017-01-18T06:43:15.863Z,-4.42
2017-01-18T06:44:25.733Z,-4.39
2017-01-18T06:45:35.728Z,-4.4
2017-01-18T06:46:45.973Z,-4.43
2017-01-18T06:47:56.210Z,-4.39
2017-01-18T06:49:06.160Z,-4.35
2017-01-18T06:50:16.597Z,-4.32
2017-01-18T06:51:26.896Z,-4.39
2017-01-18T06:52:37.149Z,-4.35
2017-01-18T06:53:47.401Z,-4.37
2017-01-18T06:54:57.667Z,-4.39
2017-01-18T06:56:07.949Z,-4.45
2017-01-18T06:57:18.220Z,-4.34
2017-01-18T06:58:28.502Z,-4.37
2017-01-18T06:59:38.778Z,-4.31
2017-01-18T07:00:49.059Z,-4.42
2017-01-18T07:01:59.327Z,-4.39
2017-01-18T07:03:09.584Z,-4.35
2017-01-18T07:04:19.828Z,-4.42
2017-01-18T07:05:30.069Z,-4.39
2017-01-18T07:06:39.916Z,-4.31
2017-01-18T07:07:50.167Z,-4.42
2017-01-18T07:09:00.487Z,-4.4
2017-01-18T07:10:10.935Z,-4.28
2017-01-18T07:11:21.188Z,-4.28
2017-01-18T07:12:31.046Z,-4.29
2017-01-18T07:13:41.312Z,-4.31
2017-01-18T07:14:51.572Z,-4.29
2017-01-18T07:16:01.838Z,-4.17
2017-01-18T07:17:12.171Z,-4.09
2017-01-18T07:18:22.429Z,-4.13
2017-01-18T07:19:32.718Z,-4.03
2017-01-18T07:20:42.995Z,-3.92
2017-01-18T07:21:53.348Z,-3.84
2017-01-18T07:23:03.233Z,-3.82
2017-01-18T07:24:13.514Z,-3.72
2017-01-18T07:25:23.822Z,-3.7
2017-01-18T07:26:33.675Z,-3.64
2017-01-18T07:27:43.924Z,-3.67
2017-01-18T07:28:54.170Z,-3.54
2017-01-18T07:30:04.484Z,-3.55
2017-01-18T07:31:14.726Z,-3.46
2017-01-18T07:32:25.045Z,-3.43
2017-01-18T07:33:35.312Z,-3.54
2017-01-18T07:34:45.183Z,-3.41
2017-01-18T07:35:55.467Z,-3.45
2017-01-18T07:37:05.773Z,-3.34
2017-01-18T07:38:16.097Z,-3.41
2017-01-18T07:39:26.385Z,-3.33
2017-01-18T07:40:36.688Z,-3.31
2017-01-18T07:41:46.614Z,-3.3
2017-01-18T07:42:56.909Z,-3.4
2017-01-18T07:44:07.186Z,-3.31
2017-01-18T07:45:17.042Z,-3.22
2017-01-18T07:46:27.306Z,-3.3
2017-01-18T07:47:37.181Z,-3.28
2017-01-18T07:48:47.428Z,-3.35
2017-01-18T07:49:57.679Z,-3.33
2017-01-18T07:51:08.113Z,-3.35
2017-01-18T07:52:18.368Z,-3.41
2017-01-18T07:53:28.637Z,-3.34
2017-01-18T07:54:38.934Z,-3.35
2017-01-18T07:55:49.266Z,-3.3
2017-01-18T07:56:59.589Z,-3.27
2017-01-18T07:58:09.838Z,-3.23
2017-01-18T07:59:20.154Z,-3.26
2017-01-18T08:00:30.466Z,-3.26
2017-01-18T08:01:40.749Z,-3.34
2017-01-18T08:02:51.100Z,-3.22
2017-01-18T08:04:00.984Z,-3.22
2017-01-18T08:05:11.224Z,-3.27
2017-01-18T08:06:21.503Z,-3.27
2017-01-18T08:07:31.349Z,-3.28
2017-01-18T08:08:41.630Z,-3.22
2017-01-18T08:09:51.948Z,-3.22
2017-01-18T08:11:02.214Z,-3.2
2017-01-18T08:12:12.476Z,-3.15
2017-01-18T08:13:22.961Z,-3.19
2017-01-18T08:14:33.211Z,-3.2
2017-01-18T08:15:43.491Z,-3.19
2017-01-18T08:16:53.768Z,-3.1
2017-01-18T08:18:04.068Z,-3.12
2017-01-18T08:19:14.323Z,-3.19
2017-01-18T08:20:24.563Z,-3.15
2017-01-18T08:21:34.852Z,-3.08
2017-01-18T08:22:45.134Z,-3.04
2017-01-18T08:23:54.995Z,-2.97
2017-01-18T08:25:04.879Z,-2.99
2017-01-18T08:26:14.802Z,-3.04
2017-01-18T08:27:25.049Z,-3.09
2017-01-18T08:28:35.311Z,-3.05
2017-01-18T08:29:45.558Z,-3.02
2017-01-18T08:30:55.810Z,-3.09
2017-01-18T08:32:06.113Z,-3.22
2017-01-18T08:33:16.001Z,-3.13
2017-01-18T08:34:25.865Z,-3.17
2017-01-18T08:35:36.177Z,-3.19
2017-01-18T08:36:46.421Z,-3.13
2017-01-18T08:37:56.671Z,-3.02
2017-01-18T08:39:06.960Z,-2.99
2017-01-18T08:40:17.315Z,-2.95
2017-01-18T08:41:27.568Z,-2.92
2017-01-18T08:42:37.807Z,-2.84
2017-01-18T08:43:48.085Z,-3.01
2017-01-18T08:44:58.370Z,-3.02
2017-01-18T08:46:08.681Z,-3.12
2017-01-18T08:47:18.591Z,-3.13
2017-01-18T08:48:28.882Z,-3.15
2017-01-18T08:49:39.134Z,-3.22
2017-01-18T08:50:49.380Z,-3.27
2017-01-18T08:51:59.749Z,-3.33
2017-01-18T08:53:10.022Z,-3.33
2017-01-18T08:54:20.306Z,-3.38
2017-01-18T08:55:30.612Z,-3.43
2017-01-18T08:56:40.914Z,-3.41
2017-01-18T08:57:50.785Z,-3.33
2017-01-18T08:59:00.638Z,-3.48
2017-01-18T09:00:10.903Z,-3.43
2017-01-18T09:01:20.767Z,-3.56
2017-01-18T09:02:31.056Z,-3.52
2017-01-18T09:03:41.404Z,-3.51
2017-01-18T09:04:51.778Z,-3.52
2017-01-18T09:06:02.057Z,-3.66
2017-01-18T09:07:12.314Z,-3.77
2017-01-18T09:08:22.573Z,-3.88
2017-01-18T09:09:32.826Z,-3.9
2017-01-18T09:10:43.157Z,-3.94
2017-01-18T09:11:53.426Z,-4.09
2017-01-18T09:13:03.685Z,-4.11
2017-01-18T09:14:14.006Z,-4.17
2017-01-18T09:15:23.881Z,-4.14
2017-01-18T09:16:34.141Z,-4.17
2017-01-18T09:17:44.059Z,-4.09
2017-01-18T09:18:54.291Z,-3.9
2017-01-18T09:20:04.150Z,-3.9
2017-01-18T09:21:14.402Z,-3.95
2017-01-18T09:22:24.736Z,-3.82
2017-01-18T09:23:34.615Z,-3.79
2017-01-18T09:24:44.858Z,-3.67
2017-01-18T09:25:55.125Z,-3.66
2017-01-18T09:27:04.989Z,-3.59
2017-01-18T09:28:15.288Z,-3.49
2017-01-18T09:29:25.522Z,-3.48
2017-01-18T09:30:35.773Z,-3.48
2017-01-18T09:31:46.041Z,-3.49
2017-01-18T09:32:55.933Z,-3.54
2017-01-18T09:34:06.362Z,-3.54
2017-01-18T09:35:16.216Z,-3.54
2017-01-18T09:36:26.453Z,-3.56
2017-01-18T09:37:36.807Z,-3.54
2017-01-18T09:38:47.064Z,-3.52
2017-01-18T09:39:56.917Z,-3.49
2017-01-18T09:41:07.247Z,-3.56
2017-01-18T09:42:17.514Z,-3.48
2017-01-18T09:43:27.490Z,-3.43
2017-01-18T09:44:37.780Z,-3.56
2017-01-18T09:45:48.020Z,-3.51
2017-01-18T09:46:58.273Z,-3.54
2017-01-18T09:48:08.164Z,-3.52
2017-01-18T09:49:18.418Z,-3.51
2017-01-18T09:50:28.285Z,-3.54
2017-01-18T09:51:38.588Z,-3.64
2017-01-18T09:52:48.845Z,-3.72
2017-01-18T09:53:59.219Z,-3.77
2017-01-18T09:55:09.107Z,-3.88
2017-01-18T09:56:19.526Z,-3.81
2017-01-18T09:57:29.385Z,-3.79
2017-01-18T09:58:39.624Z,-3.67
2017-01-18T09:59:49.911Z,-3.67
2017-01-18T10:00:59.793Z,-3.58
2017-01-18T10:02:09.644Z,-3.55
2017-01-18T10:03:19.892Z,-3.55
2017-01-18T10:04:30.265Z,-3.69
2017-01-18T10:05:39.723Z,-3.77
2017-01-18T10:06:49.985Z,-3.73
2017-01-18T10:07:59.898Z,-3.85
2017-01-18T10:09:09.766Z,-3.81
2017-01-18T10:10:20.010Z,-3.82
2017-01-18T10:11:29.920Z,-3.72
2017-01-18T10:12:40.302Z,-3.66
2017-01-18T10:13:50.735Z,-3.51
2017-01-18T10:15:00.590Z,-3.46
2017-01-18T10:16:10.907Z,-3.31
2017-01-18T10:17:21.267Z,-3.19
2017-01-18T10:18:31.195Z,-3.22
2017-01-18T10:19:41.505Z,-3.05
2017-01-18T10:20:51.411Z,-2.97
2017-01-18T10:22:01.335Z,-2.91
2017-01-18T10:23:11.589Z,-2.92
2017-01-18T10:24:21.938Z,-2.83
2017-01-18T10:25:32.325Z,-2.81
2017-01-18T10:26:42.580Z,-2.62
2017-01-18T10:27:53.031Z,-2.58
2017-01-18T10:29:03.287Z,-2.57
2017-01-18T10:30:13.580Z,-2.47
2017-01-18T10:31:23.841Z,-2.65
2017-01-18T10:32:34.106Z,-2.61
2017-01-18T10:33:44.412Z,-2.52
2017-01-18T10:34:54.294Z,-2.57
2017-01-18T10:36:04.623Z,-2.64
2017-01-18T10:37:14.976Z,-2.58
2017-01-18T10:38:25.225Z,-2.64
2017-01-18T10:39:35.476Z,-2.62
2017-01-18T10:40:45.799Z,-2.7
2017-01-18T10:41:56.103Z,-2.65
2017-01-18T10:43:06.508Z,-2.65
2017-01-18T10:44:16.785Z,-2.64
2017-01-18T10:45:27.033Z,-2.54
2017-01-18T10:46:37.311Z,-2.52
2017-01-18T10:47:47.595Z,-2.54
2017-01-18T10:48:57.881Z,-2.4
2017-01-18T10:50:08.140Z,-2.36
2017-01-18T10:51:18.409Z,-2.36
2017-01-18T10:52:28.668Z,-2.33
2017-01-18T10:53:38.667Z,-2.26
2017-01-18T10:54:48.947Z,-2.24
2017-01-18T10:55:59.191Z,-2.26
2017-01-18T10:57:09.468Z,-2.34
2017-01-18T10:58:19.747Z,-2.29
2017-01-18T10:59:30.006Z,-2.24
2017-01-18T11:00:40.398Z,-2.26
2017-01-18T11:01:50.666Z,-2.21
2017-01-18T11:03:00.936Z,-2.04
2017-01-18T11:04:11.240Z,-1.97
2017-01-18T11:05:21.525Z,-1.9
2017-01-18T11:06:31.829Z,-1.85
2017-01-18T11:07:42.109Z,-1.71
2017-01-18T11:08:52.368Z,-1.62
2017-01-18T11:10:02.616Z,-1.53
2017-01-18T11:11:12.477Z,-1.43
2017-01-18T11:12:22.764Z,-1.52
2017-01-18T11:13:33.032Z,-1.43
2017-01-18T11:14:43.416Z,-1.52
2017-01-18T11:15:53.676Z,-1.46
2017-01-18T11:17:03.977Z,-1.49
2017-01-18T11:18:14.269Z,-1.4
2017-01-18T11:19:24.520Z,-1.46
2017-01-18T11:20:34.807Z,-1.4
2017-01-18T11:21:45.091Z,-1.42
2017-01-18T11:22:55.465Z,-1.4
2017-01-18T11:24:05.728Z,-1.29
2017-01-18T11:25:15.996Z,-1.25
2017-01-18T11:26:26.431Z,-1.28
2017-01-18T11:27:36.733Z,-1.32
2017-01-18T11:28:46.976Z,-1.54
2017-01-18T11:29:57.225Z,-1.78
2017-01-18T11:31:07.468Z,-1.86
2017-01-18T11:32:17.722Z,-2.06
2017-01-18T11:33:28.025Z,-2.26
2017-01-18T11:34:38.267Z,-2.32
2017-01-18T11:35:48.584Z,-2.52
2017-01-18T11:36:58.906Z,-2.62
2017-01-18T11:38:09.175Z,-2.64
2017-01-18T11:39:19.018Z,-2.77
2017-01-18T11:40:29.331Z,-2.65
2017-01-18T11:41:39.642Z,-2.7
2017-01-18T11:42:49.882Z,-2.62
2017-01-18T11:43:59.383Z,-2.64
2017-01-18T11:45:09.252Z,-2.65
2017-01-18T11:46:19.522Z,-2.61
2017-01-18T11:47:29.791Z,-2.65
2017-01-18T11:48:40.076Z,-2.7
2017-01-18T11:49:49.922Z,-2.76
2017-01-18T11:51:00.172Z,-2.74
2017-01-18T11:52:10.569Z,-2.7
2017-01-18T11:53:20.839Z,-2.71
2017-01-18T11:54:31.136Z,-2.68
2017-01-18T11:55:41.372Z,-2.64
2017-01-18T11:56:51.677Z,-2.6
2017-01-18T11:58:01.968Z,-2.65
2017-01-18T11:59:12.282Z,-2.54
2017-01-18T12:00:22.573Z,-2.46
2017-01-18T12:01:32.832Z,-2.46
2017-01-18T12:02:43.079Z,-2.33
2017-01-18T12:03:53.327Z,-2.42
2017-01-18T12:05:03.590Z,-2.37
2017-01-18T12:06:13.489Z,-2.29
2017-01-18T12:07:23.804Z,-2.25
2017-01-18T12:08:34.048Z,-2.26
2017-01-18T12:09:44.305Z,-2.19
2017-01-18T12:10:54.569Z,-2.24
2017-01-18T12:12:04.843Z,-2.22
2017-01-18T12:13:15.127Z,-2.24
2017-01-18T12:14:25.428Z,-2.39
2017-01-18T12:15:35.303Z,-2.44
2017-01-18T12:16:45.580Z,-2.55
2017-01-18T12:17:55.831Z,-2.6
2017-01-18T12:19:05.702Z,-2.51
2017-01-18T12:20:15.986Z,-2.34
2017-01-18T12:21:26.239Z,-2.19
2017-01-18T12:22:36.085Z,-2.18
2017-01-18T12:23:46.433Z,-2.03
2017-01-18T12:24:56.769Z,-2.03
2017-01-18T12:26:07.063Z,-2.22
2017-01-18T12:27:17.312Z,-2.25
2017-01-18T12:28:27.162Z,-2.25
2017-01-18T12:29:37.430Z,-2.24
2017-01-18T12:30:47.693Z,-2.06
2017-01-18T12:31:57.982Z,-2.08
2017-01-18T12:33:08.377Z,-2.01
2017-01-18T12:34:18.647Z,-1.97
2017-01-18T12:35:28.957Z,-1.82
2017-01-18T12:36:38.862Z,-1.79
2017-01-18T12:37:49.173Z,-1.8
2017-01-18T12:38:59.024Z,-1.71
2017-01-18T12:40:08.895Z,-1.71
2017-01-18T12:41:19.254Z,-1.71
2017-01-18T12:42:29.587Z,-1.65
2017-01-18T12:43:40.028Z,-1.58
2017-01-18T12:44:50.290Z,-1.67
2017-01-18T12:46:00.573Z,-1.65
2017-01-18T12:47:10.834Z,-1.58
2017-01-18T12:48:21.100Z,-1.71
2017-01-18T12:49:31.358Z,-1.92
2017-01-18T12:50:41.680Z,-1.88
2017-01-18T12:51:51.578Z,-2.03
2017-01-18T12:53:01.970Z,-2.07
2017-01-18T12:54:12.221Z,-2.25
2017-01-18T12:55:22.674Z,-2.19
2017-01-18T12:56:32.924Z,-2.24
2017-01-18T12:57:43.234Z,-2.18
2017-01-18T12:58:53.490Z,-2.18
2017-01-18T13:00:03.767Z,-2.03
2017-01-18T13:01:14.068Z,-2
2017-01-18T13:02:24.326Z,-1.89
2017-01-18T13:03:34.589Z,-1.96
2017-01-18T13:04:44.439Z,-1.92
2017-01-18T13:05:54.695Z,-1.96
2017-01-18T13:07:04.944Z,-1.83
2017-01-18T13:08:15.321Z,-1.82
2017-01-18T13:09:25.574Z,-1.82
2017-01-18T13:10:35.839Z,-1.9
2017-01-18T13:11:46.085Z,-1.88
2017-01-18T13:12:56.371Z,-1.96
2017-01-18T13:14:06.756Z,-1.92
2017-01-18T13:15:17.086Z,-1.98
2017-01-18T13:16:27.394Z,-1.97
2017-01-18T13:17:37.775Z,-1.9
2017-01-18T13:18:48.032Z,-1.92
2017-01-18T13:19:58.300Z,-1.85
2017-01-18T13:21:08.550Z,-1.75
2017-01-18T13:22:18.807Z,-1.71
2017-01-18T13:23:29.075Z,-1.76
2017-01-18T13:24:38.972Z,-1.65
2017-01-18T13:25:49.522Z,-1.86
2017-01-18T13:26:59.805Z,-1.88
2017-01-18T13:28:10.068Z,-1.9
2017-01-18T13:29:19.937Z,-1.9
2017-01-18T13:30:30.216Z,-2
2017-01-18T13:31:40.611Z,-2.1
2017-01-18T13:32:50.896Z,-2.24
2017-01-18T13:34:00.771Z,-2.24
2017-01-18T13:35:11.039Z,-2.25
2017-01-18T13:36:21.324Z,-2.19
2017-01-18T13:37:31.578Z,-2.24
2017-01-18T13:38:41.922Z,-2.12
2017-01-18T13:39:52.301Z,-2.14
2017-01-18T13:41:02.593Z,-2.16
2017-01-18T13:42:12.971Z,-2.16
2017-01-18T13:43:23.254Z,-2.26
2017-01-18T13:44:33.580Z,-2.25
2017-01-18T13:45:43.886Z,-2.32
2017-01-18T13:46:54.151Z,-2.21
2017-01-18T13:48:04.428Z,-2.24
2017-01-18T13:49:14.688Z,-2.25
2017-01-18T13:50:25.153Z,-2.26
2017-01-18T13:51:35.469Z,-2.25
2017-01-18T13:52:45.748Z,-2.08
2017-01-18T13:53:56.010Z,-2.08
2017-01-18T13:55:06.291Z,-2.15
2017-01-18T13:56:16.569Z,-2.07
2017-01-18T13:57:26.833Z,-2.01
2017-01-18T13:58:36.358Z,-2.07
2017-01-18T13:59:46.612Z,-2.04
2017-01-18T14:00:56.927Z,-1.94
2017-01-18T14:02:07.177Z,-2.04
2017-01-18T14:03:17.447Z,-2.06
2017-01-18T14:04:27.737Z,-2.07
2017-01-18T14:05:37.603Z,-2.1
2017-01-18T14:06:47.905Z,-2.15
2017-01-18T14:07:58.272Z,-2.08
2017-01-18T14:09:08.564Z,-2.06
2017-01-18T14:10:18.817Z,-2.03
2017-01-18T14:11:29.084Z,-2
2017-01-18T14:12:38.963Z,-2.04
2017-01-18T14:13:49.283Z,-2.14
2017-01-18T14:14:59.541Z,-2.03
2017-01-18T14:16:09.810Z,-2.06
2017-01-18T14:17:20.076Z,-2
2017-01-18T14:18:30.353Z,-1.9
2017-01-18T14:19:40.611Z,-1.92
2017-01-18T14:20:50.908Z,-1.88
2017-01-18T14:22:01.173Z,-1.83
2017-01-18T14:23:11.518Z,-1.8
2017-01-18T14:24:21.793Z,-1.79
2017-01-18T14:25:32.052Z,-1.72
2017-01-18T14:26:42.338Z,-1.65
2017-01-18T14:27:52.628Z,-1.68
2017-01-18T14:29:02.897Z,-1.76
2017-01-18T14:30:13.181Z,-1.75
2017-01-18T14:31:23.486Z,-1.68
2017-01-18T14:32:33.478Z,-1.72
2017-01-18T14:33:43.914Z,-1.75
2017-01-18T14:34:54.190Z,-1.85
2017-01-18T14:36:04.473Z,-1.71
2017-01-18T14:37:14.725Z,-1.71
2017-01-18T14:38:25.002Z,-1.85
2017-01-18T14:39:34.934Z,-1.79
2017-01-18T14:40:45.219Z,-1.82
2017-01-18T14:41:55.473Z,-1.82
2017-01-18T14:43:05.766Z,-1.86
2017-01-18T14:44:16.083Z,-1.88
2017-01-18T14:45:26.004Z,-1.8
2017-01-18T14:46:35.945Z,-1.86
2017-01-18T14:47:46.238Z,-1.79
2017-01-18T14:48:56.630Z,-1.7
2017-01-18T14:50:06.920Z,-1.71
2017-01-18T14:51:17.201Z,-1.8
2017-01-18T14:52:27.488Z,-1.96
2017-01-18T14:53:37.498Z,-1.98
2017-01-18T14:54:47.755Z,-2.04
2017-01-18T14:55:58.058Z,-2.14
2017-01-18T14:57:08.347Z,-2.15
2017-01-18T14:58:18.624Z,-2.14
2017-01-18T14:59:28.931Z,-2.19
2017-01-18T15:00:39.194Z,-2.33
2017-01-18T15:01:49.676Z,-2.36
2017-01-18T15:02:59.946Z,-2.37
2017-01-18T15:04:10.241Z,-2.43
2017-01-18T15:05:20.546Z,-2.43
2017-01-18T15:06:30.817Z,-2.4
2017-01-18T15:07:41.079Z,-2.47